createdAt,value
2018-07-06T00:01:48.712Z,94790.51
2018-07-06T00:04:28.642Z,94780.94
2018-07-06T00:07:08.456Z,94782.39
2018-07-06T00:09:48.731Z,94779.08
2018-07-06T00:12:28.415Z,94790.75
2018-07-06T00:15:08.743Z,94786.80
2018-07-06T00:17:48.457Z,94791.95
2018-07-06T00:20:28.302Z,94783.27
2018-07-06T00:23:08.055Z,94777.64
2018-07-06T00:25:48.286Z,94781.20
2018-07-06T00:28:28.058Z,94787.03
2018-07-06T00:31:07.977Z,94787.71
2018-07-06T00:33:47.647Z,94787.10
2018-07-06T00:36:27.631Z,94785.11
2018-07-06T00:39:07.238Z,94785.25
2018-07-06T00:41:46.855Z,94783.12
2018-07-06T00:44:26.535Z,94793.37
2018-07-06T00:47:06.490Z,94795.87
2018-07-06T00:49:45.939Z,94784.92
2018-07-06T00:52:25.800Z,94786.44
2018-07-06T00:55:05.618Z,94788.41
2018-07-06T00:57:52.048Z,94786.44
2018-07-06T01:00:31.592Z,94783.27
2018-07-06T01:03:12.119Z,94789.58
2018-07-06T01:05:51.660Z,94786.30
2018-07-06T01:08:31.742Z,94781.93
2018-07-06T01:11:11.524Z,94782.14
2018-07-06T01:13:51.938Z,94784.64
2018-07-06T01:16:31.564Z,94777.91
2018-07-06T01:19:11.724Z,94780.91
2018-07-06T01:21:51.455Z,94777.16
2018-07-06T01:24:31.332Z,94777.78
2018-07-06T01:27:11.004Z,94774.30
2018-07-06T01:29:50.733Z,94772.56
2018-07-06T01:32:30.344Z,94770.19
2018-07-06T01:35:10.111Z,94767.16
2018-07-06T01:37:49.816Z,94769.70
2018-07-06T01:40:29.545Z,94764.17
2018-07-06T01:43:09.420Z,94766.98
2018-07-06T01:45:49.034Z,94756.66
2018-07-06T01:48:28.579Z,94763.45
2018-07-06T01:51:08.586Z,94763.59
2018-07-06T01:53:48.304Z,94764.13
2018-07-06T01:56:28.154Z,94754.59
2018-07-06T01:59:07.943Z,94755.98
2018-07-06T02:01:47.871Z,94751.20
2018-07-06T02:04:27.446Z,94748.66
2018-07-06T02:07:07.297Z,94752.05
2018-07-06T02:09:47.178Z,94755.36
2018-07-06T02:12:26.862Z,94762.02
2018-07-06T02:15:06.390Z,94752.09
2018-07-06T02:17:46.148Z,94757.01
2018-07-06T02:20:25.754Z,94759.65
2018-07-06T02:23:05.537Z,94763.44
2018-07-06T02:25:45.253Z,94766.08
2018-07-06T02:28:25.233Z,94765.09
2018-07-06T02:31:04.941Z,94767.08
2018-07-06T02:33:45.067Z,94773.27
2018-07-06T02:36:24.752Z,94767.98
2018-07-06T02:39:05.234Z,94773.30
2018-07-06T02:41:44.941Z,94766.11
2018-07-06T02:44:24.763Z,94772.52
2018-07-06T02:47:04.606Z,94775.17
2018-07-06T02:49:44.808Z,94767.13
2018-07-06T02:52:24.447Z,94763.59
2018-07-06T02:55:04.367Z,94769.00
2018-07-06T02:57:43.888Z,94770.03
2018-07-06T03:00:24.019Z,94769.39
2018-07-06T03:03:03.728Z,94761.72
2018-07-06T03:05:43.739Z,94774.29
2018-07-06T03:08:23.208Z,94772.02
2018-07-06T03:11:03.157Z,94776.14
2018-07-06T03:13:42.961Z,94766.71
2018-07-06T03:16:23.244Z,94772.36
2018-07-06T03:19:02.999Z,94777.47
2018-07-06T03:21:42.994Z,94772.26
2018-07-06T03:24:22.737Z,94775.50
2018-07-06T03:27:02.504Z,94774.59
2018-07-06T03:29:42.295Z,94772.45
2018-07-06T03:32:22.651Z,94769.38
2018-07-06T03:35:02.127Z,94772.09
2018-07-06T03:37:42.078Z,94769.66
2018-07-06T03:40:21.804Z,94772.59
2018-07-06T03:43:01.831Z,94770.55
2018-07-06T03:45:41.391Z,94779.99
2018-07-06T03:48:21.592Z,94772.42
2018-07-06T03:51:02.416Z,94772.03
2018-07-06T03:53:42.387Z,94766.98
2018-07-06T03:56:22.214Z,94767.38
2018-07-06T03:59:02.384Z,94766.66
2018-07-06T04:01:42.219Z,94765.80
2018-07-06T04:04:22.243Z,94763.70
2018-07-06T04:07:01.921Z,94761.65
2018-07-06T04:09:41.990Z,94763.66
2018-07-06T04:12:21.714Z,94760.74
2018-07-06T04:15:01.999Z,94758.48
2018-07-06T04:17:41.610Z,94749.98
2018-07-06T04:20:21.109Z,94750.36
2018-07-06T04:23:07.239Z,94764.44
2018-07-06T04:25:47.524Z,94763.31
2018-07-06T04:28:27.316Z,94766.33
2018-07-06T04:31:07.049Z,94764.94
2018-07-06T04:33:46.753Z,94771.25
2018-07-06T04:36:26.911Z,94772.36
2018-07-06T04:39:06.658Z,94769.73
2018-07-06T04:41:47.244Z,94767.34
2018-07-06T04:44:26.953Z,94763.30
2018-07-06T04:47:06.557Z,94755.99
2018-07-06T04:49:46.394Z,94765.55
2018-07-06T04:52:26.344Z,94768.61
2018-07-06T04:55:06.116Z,94758.70
2018-07-06T04:57:46.171Z,94763.91
2018-07-06T05:00:26.071Z,94757.48
2018-07-06T05:03:06.436Z,94763.94
2018-07-06T05:05:46.247Z,94757.87
2018-07-06T05:08:26.385Z,94750.24
2018-07-06T05:11:06.171Z,94758.19
2018-07-06T05:13:46.120Z,94756.98
2018-07-06T05:16:25.957Z,94751.00
2018-07-06T05:19:05.790Z,94760.95
2018-07-06T05:21:45.662Z,94756.39
2018-07-06T05:24:25.558Z,94762.56
2018-07-06T05:27:05.100Z,94761.22
2018-07-06T05:29:44.962Z,94764.90
2018-07-06T05:32:24.658Z,94761.52
2018-07-06T05:35:04.525Z,94763.98
2018-07-06T05:37:44.456Z,94761.28
2018-07-06T05:40:24.470Z,94753.70
2018-07-06T05:43:04.021Z,94759.00
2018-07-06T05:45:43.949Z,94756.70
2018-07-06T05:48:23.509Z,94755.45
2018-07-06T05:51:03.388Z,94758.48
2018-07-06T05:53:43.211Z,94755.77
2018-07-06T05:56:23.017Z,94762.70
2018-07-06T05:59:02.572Z,94756.60
2018-07-06T06:01:42.722Z,94762.11
2018-07-06T06:04:23.159Z,94761.48
2018-07-06T06:07:02.883Z,94758.75
2018-07-06T06:09:31.682Z,94754.55
2018-07-06T06:12:00.819Z,94756.53
2018-07-06T06:14:29.964Z,94758.61
2018-07-06T06:16:59.053Z,94756.94
2018-07-06T06:19:27.873Z,94759.11
2018-07-06T06:21:56.926Z,94755.56
2018-07-06T06:24:26.520Z,94762.35
2018-07-06T06:26:55.632Z,94761.50
2018-07-06T06:29:24.878Z,94759.95
2018-07-06T06:31:53.931Z,94751.61
2018-07-06T06:34:22.912Z,94746.53
2018-07-06T06:36:52.300Z,94744.47
2018-07-06T06:39:21.596Z,94746.38
2018-07-06T06:41:50.460Z,94743.56
2018-07-06T06:44:19.621Z,94736.61
2018-07-06T06:46:48.743Z,94734.34
2018-07-06T06:49:17.890Z,94727.84
2018-07-06T06:51:47.558Z,94728.06
2018-07-06T06:54:17.266Z,94727.27
2018-07-06T06:56:46.204Z,94726.69
2018-07-06T06:59:15.181Z,94727.31
2018-07-06T07:01:44.675Z,94730.89
2018-07-06T07:04:13.847Z,94730.33
2018-07-06T07:06:42.866Z,94720.48
2018-07-06T07:09:12.124Z,94720.28
2018-07-06T07:11:41.102Z,94726.83
2018-07-06T07:14:10.051Z,94725.55
2018-07-06T07:16:39.000Z,94712.36
2018-07-06T07:19:09.024Z,94730.84
2018-07-06T07:21:38.029Z,94720.20
2018-07-06T07:24:07.337Z,94715.48
2018-07-06T07:26:36.312Z,94723.54
2018-07-06T07:29:05.208Z,94722.16
2018-07-06T07:31:34.519Z,94716.28
2018-07-06T07:34:03.599Z,94717.81
2018-07-06T07:36:32.536Z,94720.18
2018-07-06T07:39:01.976Z,94720.98
2018-07-06T07:41:30.838Z,94710.87
2018-07-06T07:43:59.694Z,94695.71
2018-07-06T07:46:29.096Z,94708.22
2018-07-06T07:48:57.885Z,94710.30
2018-07-06T07:52:06.800Z,94708.52
2018-07-06T07:54:43.784Z,94702.44
2018-07-06T07:57:12.995Z,94707.89
2018-07-06T07:59:42.230Z,94705.91
2018-07-06T08:02:11.182Z,94709.08
2018-07-06T08:04:40.407Z,94712.30
2018-07-06T08:07:09.466Z,94705.82
2018-07-06T08:09:38.676Z,94704.30
2018-07-06T08:12:07.870Z,94698.51
2018-07-06T08:14:37.010Z,94702.79
2018-07-06T08:17:06.042Z,94706.44
2018-07-06T08:19:35.483Z,94699.40
2018-07-06T08:22:04.342Z,94701.44
2018-07-06T08:24:33.160Z,94694.02
2018-07-06T08:27:02.207Z,94697.30
2018-07-06T08:29:31.230Z,94689.71
2018-07-06T08:32:00.115Z,94694.97
2018-07-06T08:34:40.045Z,94690.66
2018-07-06T08:37:30.773Z,94686.30
2018-07-06T08:40:00.262Z,94687.45
2018-07-06T08:42:30.407Z,94690.11
2018-07-06T08:44:59.931Z,94686.59
2018-07-06T08:47:29.446Z,94684.03
2018-07-06T08:49:59.119Z,94685.33
2018-07-06T08:52:28.328Z,94692.37
2018-07-06T08:54:57.426Z,94685.47
2018-07-06T08:57:27.604Z,94680.52
2018-07-06T08:59:56.746Z,94679.55
2018-07-06T09:02:26.264Z,94682.63
2018-07-06T09:04:56.173Z,94676.30
2018-07-06T09:07:25.376Z,94679.27
2018-07-06T09:09:55.387Z,94677.40
2018-07-06T09:12:24.293Z,94673.31
2018-07-06T09:14:53.056Z,94669.92
2018-07-06T09:17:22.689Z,94675.04
2018-07-06T09:19:52.624Z,94676.44
2018-07-06T09:22:21.360Z,94677.66
2018-07-06T09:24:51.566Z,94667.40
2018-07-06T09:27:20.579Z,94669.88
2018-07-06T09:29:49.391Z,94658.84
2018-07-06T09:32:18.791Z,94660.09
2018-07-06T09:34:47.592Z,94656.03
2018-07-06T09:37:16.575Z,94650.17
2018-07-06T09:39:46.415Z,94642.26
2018-07-06T09:42:15.895Z,94644.90
2018-07-06T09:44:44.782Z,94647.10
2018-07-06T09:47:14.211Z,94647.73
2018-07-06T09:49:43.085Z,94642.64
2018-07-06T09:52:12.060Z,94651.56
2018-07-06T09:54:40.983Z,94652.48
2018-07-06T09:57:09.964Z,94648.41
2018-07-06T09:59:38.810Z,94646.30
2018-07-06T10:02:07.829Z,94643.02
2018-07-06T10:04:36.726Z,94639.61
2018-07-06T10:07:05.646Z,94637.83
2018-07-06T10:09:34.859Z,94636.42
2018-07-06T10:12:04.347Z,94637.02
2018-07-06T10:14:33.414Z,94629.45
2018-07-06T10:17:02.266Z,94630.16
2018-07-06T10:19:31.468Z,94629.58
2018-07-06T10:22:00.681Z,94625.02
2018-07-06T10:24:29.713Z,94627.42
2018-07-06T10:26:58.955Z,94626.03
2018-07-06T10:29:38.286Z,94630.72
2018-07-06T10:32:17.640Z,94629.54
2018-07-06T10:34:46.682Z,94629.80
2018-07-06T10:37:16.044Z,94630.61
2018-07-06T10:39:45.285Z,94629.31
2018-07-06T10:42:14.102Z,94621.29
2018-07-06T10:44:43.247Z,94621.19
2018-07-06T10:47:12.936Z,94623.05
2018-07-06T10:49:41.883Z,94627.28
2018-07-06T10:52:11.373Z,94623.66
2018-07-06T10:54:41.653Z,94613.27
2018-07-06T10:57:10.570Z,94609.52
2018-07-06T10:59:39.568Z,94613.08
2018-07-06T11:02:08.904Z,94610.94
2018-07-06T11:04:37.862Z,94606.13
2018-07-06T11:07:07.158Z,94600.14
2018-07-06T11:09:36.471Z,94591.47
2018-07-06T11:12:05.456Z,94598.45
2018-07-06T11:14:34.476Z,94604.48
2018-07-06T11:17:03.901Z,94608.08
2018-07-06T11:19:33.008Z,94601.16
2018-07-06T11:22:01.894Z,94604.09
2018-07-06T11:24:31.151Z,94604.44
2018-07-06T11:26:59.999Z,94590.37
2018-07-06T11:29:29.137Z,94588.25
2018-07-06T11:31:58.246Z,94575.30
2018-07-06T11:34:27.342Z,94575.83
2018-07-06T11:36:56.378Z,94576.14
2018-07-06T11:39:26.043Z,94574.77
2018-07-06T11:41:54.943Z,94575.16
2018-07-06T11:44:23.798Z,94573.28
2018-07-06T11:46:53.146Z,94569.41
2018-07-06T11:49:22.121Z,94573.02
2018-07-06T11:51:51.052Z,94579.53
2018-07-06T11:54:20.415Z,94586.64
2018-07-06T11:56:49.234Z,94571.84
2018-07-06T11:59:18.228Z,94569.67
2018-07-06T12:01:47.608Z,94563.89
2018-07-06T12:04:16.540Z,94566.16
2018-07-06T12:06:45.683Z,94571.42
2018-07-06T12:09:14.967Z,94560.77
2018-07-06T12:11:44.129Z,94552.13
2018-07-06T12:14:13.177Z,94540.75
2018-07-06T12:16:42.086Z,94538.52
2018-07-06T12:19:11.203Z,94541.01
2018-07-06T12:21:40.191Z,94538.62
2018-07-06T12:24:09.307Z,94536.16
2018-07-06T12:26:38.281Z,94542.45
2018-07-06T12:29:07.363Z,94536.87
2018-07-06T12:31:36.632Z,94536.67
2018-07-06T12:34:05.491Z,94518.30
2018-07-06T12:36:34.627Z,94530.88
2018-07-06T12:39:04.263Z,94528.80
2018-07-06T12:41:33.404Z,94528.45
2018-07-06T12:44:02.428Z,94524.48
2018-07-06T12:46:31.732Z,94532.38
2018-07-06T12:49:00.519Z,94532.69
2018-07-06T12:52:58.930Z,94528.19
2018-07-06T12:55:27.893Z,94532.45
2018-07-06T12:57:56.898Z,94527.31
2018-07-06T13:00:25.928Z,94528.48
2018-07-06T13:02:54.901Z,94539.17
2018-07-06T13:05:23.687Z,94526.67
2018-07-06T13:07:52.954Z,94520.77
2018-07-06T13:10:21.972Z,94515.58
2018-07-06T13:12:51.060Z,94507.19
2018-07-06T13:15:20.390Z,94504.78
2018-07-06T13:17:49.319Z,94503.13
2018-07-06T13:20:18.257Z,94507.52
2018-07-06T13:22:47.092Z,94513.22
2018-07-06T13:25:16.245Z,94520.41
2018-07-06T13:27:45.279Z,94530.23
2018-07-06T13:30:14.258Z,94527.38
2018-07-06T13:32:43.215Z,94502.05
2018-07-06T13:35:12.028Z,94534.70
2018-07-06T13:37:40.925Z,94534.59
2018-07-06T13:40:10.096Z,94526.39
2018-07-06T13:42:39.010Z,94533.80
2018-07-06T13:45:08.330Z,94535.08
2018-07-06T13:47:37.339Z,94534.53
2018-07-06T13:50:06.167Z,94540.27
2018-07-06T13:52:35.425Z,94539.14
2018-07-06T13:55:04.426Z,94537.63
2018-07-06T13:57:33.536Z,94549.02
2018-07-06T14:00:02.999Z,94550.22
2018-07-06T14:02:32.063Z,94548.92
2018-07-06T14:05:00.887Z,94555.52
2018-07-06T14:07:29.874Z,94562.56
2018-07-06T14:09:58.735Z,94572.97
2018-07-06T14:12:27.624Z,94574.05
2018-07-06T14:14:56.874Z,94575.30
2018-07-06T14:17:25.823Z,94587.78
2018-07-06T14:19:54.739Z,94595.78
2018-07-06T14:22:24.236Z,94596.86
2018-07-06T14:24:53.023Z,94602.53
2018-07-06T14:27:22.011Z,94593.58
2018-07-06T14:29:51.147Z,94601.17
2018-07-06T14:32:19.978Z,94618.14
2018-07-06T14:34:48.782Z,94616.92
2018-07-06T14:37:18.143Z,94629.05
2018-07-06T14:39:47.030Z,94630.86
2018-07-06T14:42:16.178Z,94636.42
2018-07-06T14:44:45.579Z,94651.63
2018-07-06T14:47:14.763Z,94653.84
2018-07-06T14:49:43.857Z,94653.44
2018-07-06T14:52:12.748Z,94633.24
2018-07-06T14:54:41.539Z,94645.80
2018-07-06T14:57:10.786Z,94656.95
2018-07-06T14:59:39.946Z,94654.19
2018-07-06T15:02:08.746Z,94654.52
2018-07-06T15:04:38.040Z,94649.05
2018-07-06T15:07:07.163Z,94645.83
2018-07-06T15:09:36.290Z,94646.28
2018-07-06T15:12:05.351Z,94633.94
2018-07-06T15:14:34.234Z,94637.67
2018-07-06T15:17:03.231Z,94636.54
2018-07-06T15:19:32.660Z,94631.00
2018-07-06T15:22:01.575Z,94619.63
2018-07-06T15:24:30.394Z,94620.94
2018-07-06T15:26:59.599Z,94616.30
2018-07-06T15:29:28.595Z,94612.31
2018-07-06T15:31:57.563Z,94597.75
2018-07-06T15:34:26.695Z,94594.18
2018-07-06T15:36:55.759Z,94599.30
2018-07-06T15:39:24.854Z,94603.80
2018-07-06T15:41:54.310Z,94615.39
2018-07-06T15:44:23.159Z,94608.41
2018-07-06T15:46:51.942Z,94611.87
2018-07-06T15:49:20.970Z,94617.59
2018-07-06T15:51:50.135Z,94615.56
2018-07-06T15:54:19.228Z,94608.25
2018-07-06T15:56:48.005Z,94608.22
2018-07-06T15:59:16.915Z,94600.88
2018-07-06T16:01:45.997Z,94598.72
2018-07-06T16:04:14.930Z,94594.80
2018-07-06T16:06:43.888Z,94598.75
2018-07-06T16:09:12.876Z,94600.50
2018-07-06T16:11:42.250Z,94595.50
2018-07-06T16:14:11.170Z,94594.56
2018-07-06T16:16:40.167Z,94597.22
2018-07-06T16:19:09.826Z,94593.44
2018-07-06T16:21:39.071Z,94592.48
2018-07-06T16:24:08.230Z,94589.70
2018-07-06T16:26:37.162Z,94591.36
2018-07-06T16:29:06.173Z,94588.06
2018-07-06T16:31:35.302Z,94581.11
2018-07-06T16:34:04.494Z,94578.11
2018-07-06T16:36:33.754Z,94581.59
2018-07-06T16:39:03.236Z,94572.72
2018-07-06T16:41:32.945Z,94568.92
2018-07-06T16:44:02.325Z,94565.46
2018-07-06T16:46:31.466Z,94562.59
2018-07-06T16:49:00.604Z,94558.06
2018-07-06T16:51:29.552Z,94555.64
2018-07-06T16:53:58.901Z,94559.63
2018-07-06T16:56:28.198Z,94555.67
2018-07-06T16:58:57.069Z,94554.66
2018-07-06T17:01:25.853Z,94540.27
2018-07-06T17:03:54.861Z,94549.03
2018-07-06T17:06:23.736Z,94565.19
2018-07-06T17:08:52.631Z,94573.48
2018-07-06T17:11:21.989Z,94568.58
2018-07-06T17:13:51.382Z,94582.25
2018-07-06T17:16:20.852Z,94593.08
2018-07-06T17:18:50.119Z,94592.24
2018-07-06T17:21:19.115Z,94605.17
2018-07-06T17:23:47.898Z,94610.57
2018-07-06T17:26:17.108Z,94630.94
2018-07-06T17:28:46.205Z,94635.23
2018-07-06T17:31:15.205Z,94636.06
2018-07-06T17:33:44.644Z,94647.47
2018-07-06T17:36:13.503Z,94650.06
2018-07-06T17:38:42.283Z,94650.82
2018-07-06T17:41:11.907Z,94650.94
2018-07-06T17:43:40.767Z,94654.66
2018-07-06T17:46:09.630Z,94655.23
2018-07-06T17:48:39.031Z,94655.52
2018-07-06T17:51:08.060Z,94658.59
2018-07-06T17:53:37.014Z,94651.59
2018-07-06T17:56:07.496Z,94661.12
2018-07-06T17:58:36.475Z,94657.09
2018-07-06T18:01:05.471Z,94655.41
2018-07-06T18:03:34.913Z,94654.66
2018-07-06T18:06:03.675Z,94651.75
2018-07-06T18:08:32.656Z,94651.56
2018-07-06T18:11:01.800Z,94655.91
2018-07-06T18:13:30.875Z,94638.02
2018-07-06T18:16:00.143Z,94629.70
2018-07-06T18:18:29.157Z,94617.80
2018-07-06T18:20:58.331Z,94613.47
2018-07-06T18:23:27.445Z,94612.25
2018-07-06T18:25:56.657Z,94614.38
2018-07-06T18:28:25.529Z,94610.30
2018-07-06T18:30:54.523Z,94618.19
2018-07-06T18:33:23.932Z,94621.56
2018-07-06T18:35:52.910Z,94625.55
2018-07-06T18:38:21.794Z,94626.19
2018-07-06T18:40:51.323Z,94633.69
2018-07-06T18:43:20.183Z,94640.58
2018-07-06T18:45:49.259Z,94648.69
2018-07-06T18:48:18.499Z,94648.28
2018-07-06T18:50:47.846Z,94648.79
2018-07-06T18:53:16.787Z,94637.63
2018-07-06T18:55:45.966Z,94647.97
2018-07-06T18:58:14.883Z,94660.27
2018-07-06T19:00:43.762Z,94657.19
2018-07-06T19:03:13.186Z,94653.92
2018-07-06T19:05:42.112Z,94658.90
2018-07-06T19:08:11.157Z,94667.24
2018-07-06T19:10:40.301Z,94670.80
2018-07-06T19:13:09.126Z,94673.64
2018-07-06T19:15:38.122Z,94676.98
2018-07-06T19:18:07.630Z,94674.40
2018-07-06T19:20:36.738Z,94667.59
2018-07-06T19:23:05.643Z,94658.91
2018-07-06T19:25:34.946Z,94658.80
2018-07-06T19:28:04.018Z,94645.98
2018-07-06T19:30:32.927Z,94645.69
2018-07-06T19:33:01.750Z,94649.64
2018-07-06T19:35:30.700Z,94655.06
2018-07-06T19:37:59.530Z,94656.47
2018-07-06T19:40:28.912Z,94669.83
2018-07-06T19:42:57.767Z,94673.83
2018-07-06T19:45:26.898Z,94685.25
2018-07-06T19:47:56.089Z,94690.88
2018-07-06T19:50:25.183Z,94686.22
2018-07-06T19:52:54.152Z,94694.06
2018-07-06T19:55:23.293Z,94695.66
2018-07-06T19:57:52.260Z,94704.16
2018-07-06T20:00:21.240Z,94709.42
2018-07-06T20:02:50.297Z,94710.24
2018-07-06T20:05:19.568Z,94714.02
2018-07-06T20:07:48.684Z,94715.30
2018-07-06T20:10:17.868Z,94711.98
2018-07-06T20:12:46.936Z,94706.95
2018-07-06T20:15:15.903Z,94700.89
2018-07-06T20:17:45.176Z,94691.97
2018-07-06T20:20:14.130Z,94690.95
2018-07-06T20:22:43.145Z,94687.81
2018-07-06T20:25:12.415Z,94693.52
2018-07-06T20:27:41.307Z,94706.77
2018-07-06T20:30:10.209Z,94711.18
2018-07-06T20:32:39.827Z,94706.34
2018-07-06T20:35:08.775Z,94706.38
2018-07-06T20:37:37.662Z,94709.92
2018-07-06T20:40:07.078Z,94710.23
2018-07-06T20:42:36.294Z,94704.08
2018-07-06T20:45:05.133Z,94709.33
2018-07-06T20:47:34.346Z,94704.08
2018-07-06T20:50:03.696Z,94711.34
2018-07-06T20:52:33.600Z,94709.19
2018-07-06T20:55:03.794Z,94711.45
2018-07-06T20:57:35.348Z,94716.63
2018-07-06T21:00:05.628Z,94720.09
2018-07-06T21:02:34.710Z,94720.11
2018-07-06T21:05:04.227Z,94725.70
2018-07-06T21:07:34.339Z,94731.27
2018-07-06T21:10:04.443Z,94728.24
2018-07-06T21:12:33.397Z,94729.64
2018-07-06T21:15:02.657Z,94729.41
2018-07-06T21:17:31.718Z,94729.86
2018-07-06T21:20:00.615Z,94727.60
2018-07-06T21:22:29.761Z,94721.26
2018-07-06T21:24:58.806Z,94724.30
2018-07-06T21:27:27.705Z,94722.91
2018-07-06T21:29:56.619Z,94721.70
2018-07-06T21:32:26.022Z,94720.95
2018-07-06T21:34:54.975Z,94721.45
2018-07-06T21:37:24.198Z,94728.77
2018-07-06T21:39:53.181Z,94726.54
2018-07-06T21:42:22.231Z,94725.25
2018-07-06T21:44:51.242Z,94725.98
2018-07-06T21:47:20.116Z,94728.02
2018-07-06T21:49:49.293Z,94733.41
2018-07-06T21:52:18.978Z,94727.48
2018-07-06T21:54:47.718Z,94723.58
2018-07-06T21:57:16.732Z,94719.53
2018-07-06T21:59:46.008Z,94715.39
2018-07-06T22:02:16.373Z,94714.55
2018-07-06T22:04:46.931Z,94716.30
2018-07-06T22:07:16.919Z,94719.64
2018-07-06T22:09:46.123Z,94714.05
2018-07-06T22:12:15.538Z,94716.95
2018-07-06T22:14:44.503Z,94715.12
2018-07-06T22:17:13.577Z,94717.92
2018-07-06T22:19:42.823Z,94710.10
2018-07-06T22:22:11.890Z,94703.77
2018-07-06T22:24:40.789Z,94703.33
2018-07-06T22:27:09.781Z,94700.87
2018-07-06T22:29:38.771Z,94698.92
2018-07-06T22:32:07.770Z,94699.91
2018-07-06T22:34:36.936Z,94695.82
2018-07-06T22:37:06.167Z,94689.71
2018-07-06T22:39:34.940Z,94687.16
2018-07-06T22:42:04.324Z,94684.98
2018-07-06T22:44:33.233Z,94688.53
2018-07-06T22:47:02.353Z,94692.95
2018-07-06T22:49:31.563Z,94685.42
2018-07-06T22:52:00.320Z,94689.48
2018-07-06T22:54:29.207Z,94688.32
2018-07-06T22:56:58.394Z,94685.42
2018-07-06T22:59:27.407Z,94679.84
2018-07-06T23:01:56.294Z,94677.39
2018-07-06T23:04:25.441Z,94681.04
2018-07-06T23:06:54.571Z,94681.45
2018-07-06T23:09:23.555Z,94681.45
2018-07-06T23:11:52.818Z,94670.63
2018-07-06T23:14:21.761Z,94671.03
2018-07-06T23:16:50.636Z,94675.22
2018-07-06T23:19:20.205Z,94672.63
2018-07-06T23:21:49.371Z,94672.16
2018-07-06T23:24:18.272Z,94674.42
2018-07-06T23:26:47.472Z,94671.32
2018-07-06T23:29:16.446Z,94669.28
2018-07-06T23:31:45.395Z,94672.28
2018-07-06T23:34:14.618Z,94670.12
2018-07-06T23:36:43.447Z,94664.47
2018-07-06T23:39:12.324Z,94665.43
2018-07-06T23:41:41.758Z,94676.45
2018-07-06T23:44:10.715Z,94676.45
2018-07-06T23:46:39.615Z,94670.45
2018-07-06T23:49:08.664Z,94670.24
2018-07-06T23:51:37.606Z,94665.86
2018-07-06T23:54:06.759Z,94660.81
2018-07-06T23:56:36.091Z,94659.06
2018-07-06T23:59:05.006Z,94667.30
